EW7770 Weather Reports


Display with metric or nautical units.
time (UTC)temp
F
wind
direction
speed
MPH
gust
MPH
rain 1hr
in
rain 24hr
in
rain mn
in
humidity
%
barometer
mb
20210517090727 46 45 0.0 0.0 0.00 0.45 0.00 90 1024.9
20210517085728 47 45 0.0 0.0 0.00 0.45 0.00 89 1024.9
20210517084727 46 45 1.0 1.0 0.00 0.45 0.00 90 1024.8
20210517083728 47 45 0.0 0.0 0.00 0.45 0.00 88 1024.8
20210517082727 47 45 0.0 0.0 0.00 0.45 0.00 89 1024.5
20210517081726 48 45 0.0 0.0 0.00 0.45 0.00 88 1024.4
20210517080825 48 45 0.0 0.0 0.00 0.45 0.00 89 1024.6
20210517075827 47 45 0.0 0.0 0.00 0.45 0.00 89 1024.3
20210517074826 47 45 0.0 0.0 0.00 0.45 0.00 90 1024.3
20210517073826 46 45 0.0 0.0 0.00 0.45 0.00 88 1024.2
20210517072828 46 45 0.0 0.0 0.00 0.45 0.00 89 1024.4
20210517071826 47 45 0.0 0.0 0.00 0.45 0.00 88 1024.5
20210517070826 47 112 0.0 0.0 0.00 0.45 0.00 87 1024.4
20210517065826 48 112 0.0 0.0 0.00 0.45 0.00 86 1024.2
20210517064826 48 112 0.0 0.0 0.00 0.45 0.00 86 1024.2
20210517063925 48 112 0.0 0.0 0.00 0.45 0.00 87 1024.3
20210517063827 48 112 0.0 0.0 0.00 0.45 0.00 87 1024.3
20210517062827 48 112 0.0 0.0 0.00 0.45 0.00 87 1024.2
20210517061826 48 112 0.0 0.0 0.00 0.45 0.00 88 1024.2
20210517060826 47 112 0.0 0.0 0.00 0.45 0.00 90 1024.3
20210517060726 47 112 0.0 0.0 0.00 0.45 0.00 89 1024.2
20210517055726 47 112 0.0 0.0 0.00 0.45 0.00 90 1024.3
20210517054726 47 112 0.0 0.0 0.00 0.45 0.00 88 1024.5
20210517053727 47 112 0.0 0.0 0.00 0.45 0.00 88 1024.4
20210517052727 48 112 0.0 0.0 0.00 0.45 0.00 88 1024.4
20210517051826 48 112 0.0 0.0 0.00 0.45 0.00 88 1024.4
20210517050827 48 112 0.0 0.0 0.00 0.45 0.00 89 1024.4
20210517045828 48 112 1.0 1.0 0.00 0.45 0.00 89 1024.4
20210517044827 49 101 1.0 3.0 0.00 0.45 0.00 88 1024.4
20210517043828 49 112 1.0 2.0 0.00 0.45 0.00 86 1024.2
20210517042826 50 90 2.0 2.0 0.00 0.45 0.00 84 1024.4
20210517042726 50 90 1.0 2.0 0.00 0.45 0.00 85 1024.4
20210517041726 50 73 1.0 2.0 0.00 0.45 0.00 82 1024.6
20210517041628 50 67 1.0 1.0 0.00 0.45 0.00 83 1024.5
20210517041527 50 67 0.0 1.0 0.00 0.45 0.00 83 1024.4
20210517040526 50 45 0.0 1.0 0.00 0.45 0.00 81 1024.3
20210517035530 50 22 0.0 0.0 0.00 0.45 0.45 81 1024.6
20210517034528 51 22 0.0 1.0 0.00 0.45 0.45 78 1024.4
20210517033529 52 22 0.0 0.0 0.00 0.45 0.45 78 1024.4
20210517032629 52 22 0.0 1.0 0.00 0.45 0.45 76 1024.7
20210517031631 51 9 2.0 3.0 0.00 0.45 0.45 81 1024.7
20210517030729 51 360 2.0 3.0 0.00 0.45 0.45 81 1024.5
20210517025731 51 22 1.0 2.0 0.00 0.45 0.45 83 1024.6
20210517024731 50 292 0.0 0.0 0.00 0.45 0.45 85 1024.5
20210517023731 51 292 0.0 0.0 0.00 0.45 0.45 84 1024.4
20210517023631 51 292 0.0 0.0 0.00 0.45 0.45 84 1024.4
20210517022630 51 292 0.0 0.0 0.00 0.45 0.45 82 1024.4
20210517022529 52 292 0.0 0.0 0.00 0.45 0.45 82 1024.4
20210517021529 52 292 0.0 0.0 0.00 0.45 0.45 81 1024.3
20210517020530 52 292 0.0 1.0 0.00 0.45 0.45 82 1024.3
20210517015529 52 292 1.0 1.0 0.00 0.45 0.45 82 1024.3
20210517014532 52 292 0.0 0.0 0.00 0.45 0.45 82 1024.3
20210517013628 52 292 0.0 2.0 0.00 0.45 0.45 83 1024.2
20210517012631 52 337 0.0 1.0 0.00 0.45 0.45 85 1024.1
20210517011730 51 337 0.0 0.0 0.00 0.45 0.45 86 1024.0
20210517011631 51 337 0.0 0.0 0.00 0.45 0.45 86 1024.0
20210517010629 52 270 0.0 0.0 0.00 0.45 0.45 84 1024.1
20210517010530 52 270 0.0 0.0 0.00 0.45 0.45 83 1024.1
20210517005530 52 270 0.0 1.0 0.00 0.45 0.45 84 1023.9
20210517004529 52 252 1.0 3.0 0.00 0.45 0.45 83 1023.9
20210517003628 52 225 0.0 1.0 0.00 0.45 0.45 83 1023.9
20210517002629 51 357 0.0 1.0 0.00 0.45 0.45 85 1023.5
20210517001632 52 22 0.0 1.0 0.00 0.45 0.45 85 1023.5
20210517000631 52 45 0.0 1.0 0.00 0.45 0.45 84 1023.6
20210516235629 52 24 1.0 2.0 0.00 0.45 0.45 83 1023.5
20210516234630 52 353 4.0 5.0 0.00 0.45 0.45 83 1023.4
20210516233630 52 358 2.0 6.0 0.00 0.45 0.45 84 1023.3
20210516232629 52 347 4.0 6.0 0.00 0.45 0.45 82 1023.0
20210516231728 52 349 3.0 6.0 0.01 0.45 0.45 84 1022.8
20210516230731 52 330 4.0 6.0 0.01 0.45 0.45 85 1023.2
20210516225729 52 329 3.0 6.0 0.01 0.45 0.45 86 1023.6
20210516224729 52 346 3.0 5.0 0.02 0.45 0.45 87 1023.7
20210516223829 52 3 1.0 4.0 0.02 0.45 0.45 86 1023.9
20210516223730 52 1 2.0 5.0 0.02 0.45 0.45 87 1024.0
20210516222731 52 17 0.0 3.0 0.08 0.45 0.45 85 1024.3
20210516222630 52 22 0.0 2.0 0.09 0.45 0.44 85 1024.3
20210516221629 52 342 4.0 5.0 0.08 0.44 0.44 85 1024.2
20210516220630 52 327 4.0 8.0 0.12 0.44 0.44 86 1024.2
20210516215629 52 354 4.0 7.0 0.19 0.44 0.44 87 1024.1
20210516214629 52 345 3.0 4.0 0.25 0.43 0.43 89 1024.2
20210516213634 52 342 3.0 4.0 0.27 0.43 0.42 87 1023.9
20210516212631 52 307 1.0 2.0 0.23 0.36 0.36 88 1023.7
20210516211630 52 320 2.0 3.0 0.24 0.36 0.36 86 1023.6
20210516210629 53 315 0.0 1.0 0.32 0.32 0.31 86 1023.3
20210516205631 54 338 1.0 2.0 0.25 0.25 0.24 84 1023.4
20210516205531 54 315 1.0 1.0 0.24 0.24 0.23 83 1023.4
20210516204529 56 247 1.0 2.0 0.18 0.18 0.18 80 1023.0
20210516203530 57 247 1.0 2.0 0.16 0.16 0.15 71 1022.9
20210516202533 61 121 0.0 2.0 0.13 0.13 0.13 63 1022.5
20210516201531 65 167 8.0 13.0 0.11 0.11 0.11 56 1022.8
20210516200629 70 250 1.0 3.0 0.00 0.00 0.00 44 1021.9
20210516195630 71 135 1.0 3.0 0.00 0.00 0.00 38 1021.5
20210516194630 72 115 3.0 6.0 0.00 0.00 0.00 33 1021.4
20210516194528 72 97 1.0 3.0 0.00 0.00 0.00 32 1021.4
20210516193529 73 125 2.0 4.0 0.00 0.00 0.00 32 1021.5
20210516193429 73 121 4.0 6.0 0.00 0.00 0.00 32 1021.4
20210516192429 74 89 3.0 7.0 0.00 0.00 0.00 31 1021.6
20210516191432 75 102 3.0 5.0 0.00 0.00 0.00 30 1021.6
20210516190430 75 120 5.0 8.0 0.00 0.00 0.00 31 1021.7
20210516185430 76 157 0.0 2.0 0.00 0.00 0.00 30 1021.6
20210516185329 76 136 0.0 2.0 0.00 0.00 0.00 30 1021.7
20210516184330 76 196 1.0 4.0 0.00 0.00 0.00 30 1021.6
20210516183331 75 77 3.0 5.0 0.00 0.00 0.00 30 1021.6
20210516182330 74 320 0.0 2.0 0.00 0.00 0.00 31 1021.7
20210516181330 75 344 5.0 9.0 0.00 0.00 0.00 29 1021.7
20210516180333 75 123 0.0 2.0 0.00 0.00 0.00 32 1021.7
20210516175329 74 3 3.0 6.0 0.00 0.00 0.00 32 1021.7
20210516174428 74 296 3.0 11.0 0.00 0.00 0.00 30 1021.9
20210516173430 74 352 4.0 7.0 0.00 0.00 0.00 30 1021.9
20210516173331 74 4 4.0 7.0 0.00 0.00 0.00 30 1021.8
20210516172329 74 22 5.0 7.0 0.00 0.00 0.00 31 1022.0
20210516171331 75 349 3.0 7.0 0.00 0.00 0.00 33 1022.2
20210516170430 75 135 0.0 0.0 0.00 0.00 0.00 36 1022.3
20210516165431 75 115 2.0 4.0 0.00 0.00 0.00 36 1022.4
20210516164429 74 185 0.0 3.0 0.00 0.00 0.00 38 1022.7
20210516163432 73 223 4.0 6.0 0.00 0.00 0.00 38 1022.8
20210516162431 74 159 2.0 4.0 0.00 0.00 0.00 37 1022.8
20210516161531 71 158 0.0 2.0 0.00 0.00 0.00 40 1023.0
20210516161430 71 135 3.0 4.0 0.00 0.00 0.00 40 1022.9
20210516160431 70 49 1.0 2.0 0.00 0.00 0.00 41 1023.2
20210516160329 70 135 0.0 0.0 0.00 0.00 0.00 42 1023.2
20210516155331 70 360 1.0 3.0 0.00 0.00 0.00 42 1023.5
20210516154336 68 96 0.0 3.0 0.00 0.00 0.00 44 1023.6
20210516153429 69 92 2.0 3.0 0.00 0.00 0.00 42 1023.6
20210516153337 69 143 0.0 0.0 0.00 0.00 0.00 43 1023.7
20210516152428 70 79 0.0 2.0 0.00 0.00 0.00 42 1023.5
20210516151429 69 108 2.0 2.0 0.00 0.00 0.00 43 1023.4
20210516150432 68 126 2.0 4.0 0.00 0.00 0.00 43 1023.7
20210516145430 67 338 3.0 5.0 0.00 0.00 0.00 46 1023.7
20210516144431 66 338 2.0 4.0 0.00 0.00 0.00 47 1023.7
20210516143429 66 24 1.0 3.0 0.00 0.00 0.00 47 1023.7
20210516142432 66 77 0.0 2.0 0.00 0.00 0.00 46 1023.6
20210516141529 65 71 1.0 3.0 0.00 0.00 0.00 48 1023.4
20210516140537 66 10 3.0 6.0 0.00 0.00 0.00 49 1023.3
20210516135631 65 123 0.0 1.0 0.00 0.00 0.00 50 1023.4
20210516134629 63 40 2.0 4.0 0.00 0.00 0.00 52 1023.4
20210516133630 62 130 1.0 3.0 0.00 0.00 0.00 55 1023.3
20210516132629 62 105 1.0 3.0 0.00 0.00 0.00 58 1023.3
20210516131628 60 112 0.0 1.0 0.00 0.00 0.00 59 1023.4
20210516130631 60 135 2.0 4.0 0.00 0.00 0.00 57 1023.4
20210516125730 59 135 2.0 3.0 0.00 0.00 0.00 58 1023.3
20210516125631 59 135 2.0 4.0 0.00 0.00 0.00 59 1023.5
20210516124728 58 135 0.0 1.0 0.00 0.00 0.00 59 1023.5
20210516123731 58 157 0.0 2.0 0.00 0.00 0.00 61 1023.3
20210516122728 57 118 1.0 4.0 0.00 0.00 0.00 64 1023.3
20210516122631 57 135 1.0 2.0 0.00 0.00 0.00 64 1023.3
20210516121630 55 108 2.0 4.0 0.00 0.00 0.00 67 1023.0
20210516120728 54 135 1.0 1.0 0.00 0.00 0.00 68 1023.2
20210516115731 53 72 2.0 3.0 0.00 0.00 0.00 67 1023.1
20210516114730 53 135 2.0 4.0 0.00 0.00 0.00 68 1023.1
20210516113731 53 112 1.0 2.0 0.00 0.00 0.00 69 1023.0
20210516112829 53 67 1.0 4.0 0.00 0.00 0.00 69 1023.0
20210516111830 52 67 0.0 1.0 0.00 0.00 0.00 70 1023.0
20210516110830 51 112 1.0 2.0 0.00 0.00 0.00 71 1023.0
20210516110730 51 112 1.0 2.0 0.00 0.00 0.00 71 1023.0
20210516105829 51 112 1.0 2.0 0.00 0.00 0.00 72 1023.0
20210516104830 50 112 0.0 1.0 0.00 0.00 0.00 73 1022.8
20210516103831 50 135 1.0 2.0 0.00 0.00 0.00 72 1022.9
20210516102831 50 112 2.0 3.0 0.00 0.00 0.00 73 1022.7
20210516101830 49 112 0.0 1.0 0.00 0.00 0.00 74 1022.6
20210516100829 49 115 2.0 4.0 0.00 0.00 0.00 73 1022.4
20210516095830 49 112 3.0 5.0 0.00 0.00 0.00 72 1022.5
20210516094830 49 135 2.0 2.0 0.00 0.00 0.00 74 1022.4
20210516094730 49 135 2.0 2.0 0.00 0.00 0.00 75 1022.4
20210516093731 48 135 0.0 1.0 0.00 0.00 0.00 75 1022.5
20210516092732 48 135 1.0 2.0 0.00 0.00 0.00 74 1022.4
20210516091730 48 112 0.0 1.0 0.00 0.00 0.00 75 1022.4